Time;durP1;ratioP1;P1;durP2;ratioP2;P2;SDS_P1;SDS_P2;PMS_P1;PMS_P2;Temp;Humidity;BMP_temperature;BMP_pressure;BME280_temperature;BME280_humidity;BME280_pressure;Samples;Min_cycle;Max_cycle;Signal;HPM_P1;HPM_P2
2022/08/21 07:52:04;;;;;;;1999.90;999.90;;;;;;;;;;5083432;27;21729;-76
2022/08/21 07:54:32;;;;;;;1999.90;999.90;;;;;;;;;;5072681;28;20383;-75
2022/08/21 07:57:01;;;;;;;1999.90;999.90;;;;;;;;;;5071628;28;20395;-77
2022/08/21 07:59:29;;;;;;;1999.90;999.90;;;;;;;;;;5072194;28;20433;-79
2022/08/21 08:01:57;;;;;;;1999.90;999.90;;;;;;;;;;5073906;28;20413;-78
2022/08/21 08:04:25;;;;;;;1999.90;999.90;;;;;;;;;;5072951;28;20513;-79
2022/08/21 08:06:53;;;;;;;1999.90;999.90;;;;;;;;;;5063878;28;20926;-77
2022/08/21 08:09:22;;;;;;;1999.90;999.90;;;;;;;;;;5063586;28;20407;-78
2022/08/21 08:11:50;;;;;;;1999.90;999.90;;;;;;;;;;5066644;28;20422;-75
2022/08/21 08:14:18;;;;;;;1999.90;999.90;;;;;;;;;;5064210;28;20406;-76
2022/08/21 08:16:53;;;;;;;1999.90;999.90;;;;;;;;;;5076387;28;20620;-76
2022/08/21 08:19:21;;;;;;;1999.90;999.90;;;;;;;;;;5065991;28;20427;-76
2022/08/21 08:21:49;;;;;;;1999.90;999.90;;;;;;;;;;5065957;28;20403;-75
2022/08/21 08:24:16;;;;;;;1999.90;999.90;;;;;;;;;;5069277;28;20415;-76
2022/08/21 08:26:48;;;;;;;1999.90;999.90;;;;;;;;;;5069440;28;20817;-75
2022/08/21 08:29:20;;;;;;;1999.90;999.90;;;;;;;;;;5079621;28;20410;-77
2022/08/21 08:31:48;;;;;;;1999.90;999.90;;;;;;;;;;5048631;28;20422;-77
2022/08/21 08:34:19;;;;;;;1999.90;999.90;;;;;;;;;;5075982;28;20386;-76
2022/08/21 08:36:52;;;;;;;1999.90;999.90;;;;;;;;;;5066931;28;20898;-76
2022/08/21 08:39:20;;;;;;;1999.90;999.90;;;;;;;;;;5076543;28;20479;-76
2022/08/21 08:42:06;;;;;;;1999.90;999.90;;;;;;;;;;5068358;28;20898;-76
2022/08/21 08:44:57;;;;;;;1999.90;999.90;;;;;;;;;;5066612;28;20390;-77
2022/08/21 08:47:26;;;;;;;1999.90;999.90;;;;;;;;;;5066603;28;20425;-77
2022/08/21 08:49:56;;;;;;;1999.90;999.90;;;;;;;;;;5064741;28;20517;-77
2022/08/21 08:52:27;;;;;;;1999.90;999.90;;;;;;;;;;5066013;28;21029;-77
2022/08/21 08:55:01;;;;;;;1999.90;999.90;;;;;;;;;;5068596;28;20396;-77
2022/08/21 08:57:31;;;;;;;1999.90;999.90;;;;;;;;;;5067041;28;20411;-76
2022/08/21 08:59:59;;;;;;;1999.90;999.90;;;;;;;;;;5062140;28;20398;-78
2022/08/21 09:02:29;;;;;;;1999.90;999.90;;;;;;;;;;5062336;28;21205;-77
2022/08/21 09:04:57;;;;;;;1999.90;999.90;;;;;;;;;;5076147;28;20416;-77
2022/08/21 09:07:29;;;;;;;1999.90;999.90;;;;;;;;;;5062783;28;20517;-79
2022/08/21 09:10:02;;;;;;;1999.90;999.90;;;;;;;;;;5061002;28;20419;-77
2022/08/21 09:12:38;;;;;;;1999.90;999.90;;;;;;;;;;5050916;28;20419;-79
2022/08/21 09:15:10;;;;;;;1999.90;999.90;;;;;;;;;;5052454;28;20396;-77
2022/08/21 09:17:50;;;;;;;1999.90;999.90;;;;;;;;;;5050753;28;20415;-77
2022/08/21 09:20:23;;;;;;;1999.90;999.90;;;;;;;;;;5035835;28;20395;-77
2022/08/21 09:22:58;;;;;;;1999.90;999.90;;;;;;;;;;5052981;28;20436;-77
2022/08/21 09:25:27;;;;;;;1999.90;999.90;;;;;;;;;;5062500;28;20395;-80
2022/08/21 09:27:56;;;;;;;1999.90;999.90;;;;;;;;;;5066074;28;20429;-78
2022/08/21 09:30:26;;;;;;;1999.90;999.90;;;;;;;;;;5044944;28;20781;-78
2022/08/21 09:32:54;;;;;;;1999.90;999.90;;;;;;;;;;5060564;28;21174;-78
2022/08/21 09:35:23;;;;;;;1999.90;999.90;;;;;;;;;;5053238;28;20388;-77
2022/08/21 09:37:52;;;;;;;1999.90;999.90;;;;;;;;;;5055403;28;20401;-77
2022/08/21 09:40:27;;;;;;;1999.90;999.90;;;;;;;;;;5032659;28;20427;-76
2022/08/21 09:42:57;;;;;;;1999.90;999.90;;;;;;;;;;5052260;28;20973;-76
2022/08/21 09:45:25;;;;;;;1999.90;999.90;;;;;;;;;;5052337;28;20492;-76
2022/08/21 09:47:53;;;;;;;1999.90;999.90;;;;;;;;;;5037083;28;20402;-77
2022/08/21 09:50:23;;;;;;;1999.90;999.90;;;;;;;;;;5067469;28;20471;-76
2022/08/21 09:52:53;;;;;;;1999.90;999.90;;;;;;;;;;5034291;28;20410;-76
2022/08/21 09:58:10;;;;;;;1999.90;999.90;;;;;;;;;;5062949;28;21485;-77
2022/08/21 10:00:38;;;;;;;1999.90;999.90;;;;;;;;;;5061733;28;20417;-75
2022/08/21 10:03:14;;;;;;;1999.90;999.90;;;;;;;;;;5035407;28;20403;-76
2022/08/21 10:05:52;;;;;;;1999.90;999.90;;;;;;;;;;5061960;28;20912;-75
2022/08/21 10:08:20;;;;;;;1999.90;999.90;;;;;;;;;;5059178;28;20488;-76
2022/08/21 10:10:51;;;;;;;1999.90;999.90;;;;;;;;;;5058353;28;20412;-77
2022/08/21 10:13:29;;;;;;;1999.90;999.90;;;;;;;;;;5055874;28;20422;-76
2022/08/21 10:16:03;;;;;;;1999.90;999.90;;;;;;;;;;5052826;28;21714;-76
2022/08/21 10:18:35;;;;;;;1999.90;999.90;;;;;;;;;;5057148;28;20833;-76
2022/08/21 10:21:05;;;;;;;1999.90;999.90;;;;;;;;;;5057410;28;21138;-76
2022/08/21 10:23:43;;;;;;;1999.90;999.90;;;;;;;;;;5056093;28;20410;-76
2022/08/21 10:26:16;;;;;;;1999.90;999.90;;;;;;;;;;5056472;28;21483;-76
2022/08/21 10:28:50;;;;;;;1999.90;999.90;;;;;;;;;;5054691;28;20528;-77
2022/08/21 10:31:22;;;;;;;1999.90;999.90;;;;;;;;;;5056050;28;20356;-76
2022/08/21 10:33:54;;;;;;;1999.90;999.90;;;;;;;;;;5057244;28;21184;-76
2022/08/21 10:36:24;;;;;;;1999.90;999.90;;;;;;;;;;5065027;28;21264;-76
2022/08/21 10:39:02;;;;;;;1999.90;999.90;;;;;;;;;;5057726;28;20479;-76
2022/08/21 10:42:03;;;;;;;1999.90;999.90;;;;;;;;;;5057380;28;20399;-77
2022/08/21 10:44:38;;;;;;;1999.90;999.90;;;;;;;;;;5053649;28;20419;-78
2022/08/21 10:47:09;;;;;;;1999.90;999.90;;;;;;;;;;5053333;28;20479;-78
2022/08/21 10:49:40;;;;;;;1999.90;999.90;;;;;;;;;;5069037;28;20418;-77
2022/08/21 10:52:16;;;;;;;1999.90;999.90;;;;;;;;;;5054169;28;20409;-75
2022/08/21 10:54:48;;;;;;;1999.90;999.90;;;;;;;;;;5054879;28;20415;-77
2022/08/21 10:57:20;;;;;;;1999.90;999.90;;;;;;;;;;5055733;28;20454;-77
2022/08/21 11:00:03;;;;;;;1999.90;999.90;;;;;;;;;;5035878;28;20464;-76
2022/08/21 11:02:32;;;;;;;1999.90;999.90;;;;;;;;;;5036823;28;20435;-78
2022/08/21 11:05:02;;;;;;;1999.90;999.90;;;;;;;;;;5060031;28;20408;-77
2022/08/21 11:07:33;;;;;;;1999.90;999.90;;;;;;;;;;5057702;28;21108;-76
2022/08/21 11:10:04;;;;;;;1999.90;999.90;;;;;;;;;;5059238;28;20543;-77
2022/08/21 11:12:39;;;;;;;1999.90;999.90;;;;;;;;;;5075102;28;20881;-76
2022/08/21 11:15:17;;;;;;;1999.90;999.90;;;;;;;;;;5055788;28;20414;-79
2022/08/21 11:18:01;;;;;;;1999.90;999.90;;;;;;;;;;5056743;28;20413;-79
2022/08/21 11:20:31;;;;;;;1999.90;999.90;;;;;;;;;;5062371;28;20406;-77
2022/08/21 11:23:01;;;;;;;1999.90;999.90;;;;;;;;;;5055839;28;20465;-77
2022/08/21 11:25:34;;;;;;;1999.90;999.90;;;;;;;;;;5058795;28;20466;-81
2022/08/21 11:28:07;;;;;;;1999.90;999.90;;;;;;;;;;5054801;28;20407;-75
2022/08/21 11:30:48;;;;;;;1999.90;999.90;;;;;;;;;;5055180;28;20404;-77
2022/08/21 11:33:32;;;;;;;1999.90;999.90;;;;;;;;;;5056645;28;20401;-78
2022/08/21 11:36:03;;;;;;;1999.90;999.90;;;;;;;;;;5053918;28;20445;-79
2022/08/21 11:38:35;;;;;;;1999.90;999.90;;;;;;;;;;5058255;28;20432;-78
2022/08/21 11:41:13;;;;;;;1999.90;999.90;;;;;;;;;;5055639;28;20458;-78
2022/08/21 11:43:42;;;;;;;1999.90;999.90;;;;;;;;;;5055159;28;20779;-78
2022/08/21 11:46:17;;;;;;;1999.90;999.90;;;;;;;;;;5056005;28;20412;-78
2022/08/21 11:48:49;;;;;;;1999.90;999.90;;;;;;;;;;5052551;28;20392;-77
2022/08/21 11:51:20;;;;;;;1999.90;999.90;;;;;;;;;;5054606;28;20403;-78
2022/08/21 11:53:52;;;;;;;1999.90;999.90;;;;;;;;;;5040032;28;20919;-79
2022/08/21 11:56:24;;;;;;;1999.90;999.90;;;;;;;;;;5056212;28;20404;-78
2022/08/21 11:58:55;;;;;;;1999.90;999.90;;;;;;;;;;5041294;28;20396;-72
2022/08/21 12:01:29;;;;;;;1999.90;999.90;;;;;;;;;;5053474;28;20390;-84
2022/08/21 12:04:00;;;;;;;1999.90;999.90;;;;;;;;;;5057728;28;20412;-78
2022/08/21 12:06:32;;;;;;;1999.90;999.90;;;;;;;;;;5051283;28;20412;-78
2022/08/21 12:09:01;;;;;;;1999.90;999.90;;;;;;;;;;5042269;28;20412;-82
2022/08/21 12:11:33;;;;;;;1999.90;999.90;;;;;;;;;;5046659;28;20901;-81
2022/08/21 12:14:12;;;;;;;1999.90;999.90;;;;;;;;;;5052900;28;20543;-82
2022/08/21 12:16:43;;;;;;;1999.90;999.90;;;;;;;;;;5054325;28;20408;-81
2022/08/21 12:19:12;;;;;;;1999.90;999.90;;;;;;;;;;5051783;28;20394;-80
2022/08/21 12:21:49;;;;;;;1999.90;999.90;;;;;;;;;;5056356;28;21283;-80
2022/08/21 12:24:18;;;;;;;1999.90;999.90;;;;;;;;;;5053817;28;20392;-80
2022/08/21 12:26:50;;;;;;;1999.90;999.90;;;;;;;;;;5055287;28;20407;-79
2022/08/21 12:29:23;;;;;;;1999.90;999.90;;;;;;;;;;5055722;28;20394;-81
2022/08/21 12:31:54;;;;;;;1999.90;999.90;;;;;;;;;;5057359;28;20394;-80
2022/08/21 12:34:24;;;;;;;1999.90;999.90;;;;;;;;;;5056791;28;20377;-81
2022/08/21 12:36:55;;;;;;;1999.90;999.90;;;;;;;;;;5058016;28;20959;-80
2022/08/21 12:39:25;;;;;;;1999.90;999.90;;;;;;;;;;5078764;28;20406;-83
2022/08/21 12:41:56;;;;;;;1999.90;999.90;;;;;;;;;;5041658;28;20414;-80
2022/08/21 12:44:30;;;;;;;1999.90;999.90;;;;;;;;;;5087629;28;20493;-82
2022/08/21 12:47:06;;;;;;;1999.90;999.90;;;;;;;;;;5066052;28;20437;-79
2022/08/21 12:49:36;;;;;;;1999.90;999.90;;;;;;;;;;5048982;28;20396;-76
2022/08/21 12:52:10;;;;;;;1999.90;999.90;;;;;;;;;;5054873;28;20426;-76
2022/08/21 12:54:39;;;;;;;1999.90;999.90;;;;;;;;;;5046500;28;20395;-76
2022/08/21 12:57:08;;;;;;;1999.90;999.90;;;;;;;;;;5061788;28;20419;-76
2022/08/21 12:59:40;;;;;;;1999.90;999.90;;;;;;;;;;5051370;28;20423;-76
2022/08/21 13:02:14;;;;;;;1999.90;999.90;;;;;;;;;;5055480;28;20488;-75
2022/08/21 13:04:42;;;;;;;1999.90;999.90;;;;;;;;;;5048144;28;20403;-77
2022/08/21 13:07:12;;;;;;;1999.90;999.90;;;;;;;;;;5049259;28;20898;-73
2022/08/21 13:09:43;;;;;;;1999.90;999.90;;;;;;;;;;5049414;28;20392;-73
2022/08/21 13:12:10;;;;;;;1999.90;999.90;;;;;;;;;;5052080;28;20419;-75
2022/08/21 13:14:40;;;;;;;1999.90;999.90;;;;;;;;;;5055971;28;20405;-75
2022/08/21 13:17:14;;;;;;;1999.90;999.90;;;;;;;;;;5065756;28;20420;-75
2022/08/21 13:19:56;;;;;;;1999.90;999.90;;;;;;;;;;5063152;28;20407;-77
2022/08/21 13:22:25;;;;;;;1999.90;999.90;;;;;;;;;;5051994;28;20397;-76
2022/08/21 13:25:02;;;;;;;1999.90;999.90;;;;;;;;;;5054542;28;20389;-75
2022/08/21 13:27:34;;;;;;;1999.90;999.90;;;;;;;;;;5052431;28;20461;-76
2022/08/21 13:30:04;;;;;;;1999.90;999.90;;;;;;;;;;5062198;28;20489;-76
2022/08/21 13:32:34;;;;;;;1999.90;999.90;;;;;;;;;;5059278;28;20449;-77
2022/08/21 13:35:08;;;;;;;1999.90;999.90;;;;;;;;;;5049351;28;20393;-76
2022/08/21 13:37:36;;;;;;;1999.90;999.90;;;;;;;;;;5048635;28;20794;-75
2022/08/21 13:40:07;;;;;;;1999.90;999.90;;;;;;;;;;5053223;28;20397;-76
2022/08/21 13:42:35;;;;;;;1999.90;999.90;;;;;;;;;;5047817;28;20439;-75
2022/08/21 13:45:03;;;;;;;1999.90;999.90;;;;;;;;;;5033003;28;20404;-76
2022/08/21 13:47:31;;;;;;;1999.90;999.90;;;;;;;;;;5030366;28;20419;-76
2022/08/21 13:50:00;;;;;;;1999.90;999.90;;;;;;;;;;5034080;28;20392;-75
2022/08/21 13:52:28;;;;;;;1999.90;999.90;;;;;;;;;;5065785;28;20396;-77
2022/08/21 13:54:57;;;;;;;1999.90;999.90;;;;;;;;;;5064095;28;20418;-76
2022/08/21 13:57:26;;;;;;;1999.90;999.90;;;;;;;;;;5064872;28;20407;-76
2022/08/21 13:59:54;;;;;;;1999.90;999.90;;;;;;;;;;5032182;28;20522;-76
2022/08/21 14:02:23;;;;;;;1999.90;999.90;;;;;;;;;;5029448;28;20392;-77
2022/08/21 14:04:52;;;;;;;1999.90;999.90;;;;;;;;;;5054965;28;20737;-76
2022/08/21 14:07:25;;;;;;;1999.90;999.90;;;;;;;;;;5034668;28;20418;-76
2022/08/21 14:09:53;;;;;;;1999.90;999.90;;;;;;;;;;5051678;28;20927;-76
2022/08/21 14:12:26;;;;;;;1999.90;999.90;;;;;;;;;;5048607;28;20416;-77
2022/08/21 14:14:55;;;;;;;1999.90;999.90;;;;;;;;;;5053190;28;20387;-77
2022/08/21 14:17:27;;;;;;;1999.90;999.90;;;;;;;;;;5050719;28;20419;-76
2022/08/21 14:20:00;;;;;;;1999.90;999.90;;;;;;;;;;5052132;28;20404;-78
2022/08/21 14:22:32;;;;;;;1999.90;999.90;;;;;;;;;;5050496;28;20427;-77
2022/08/21 14:25:01;;;;;;;1999.90;999.90;;;;;;;;;;5045305;28;20455;-78
2022/08/21 14:27:30;;;;;;;1999.90;999.90;;;;;;;;;;5047602;28;20412;-77
2022/08/21 14:29:59;;;;;;;1999.90;999.90;;;;;;;;;;5048078;28;20400;-76
2022/08/21 14:32:30;;;;;;;1999.90;999.90;;;;;;;;;;5047529;28;20424;-77
2022/08/21 14:34:59;;;;;;;1999.90;999.90;;;;;;;;;;5060751;28;20418;-77
2022/08/21 14:37:27;;;;;;;1999.90;999.90;;;;;;;;;;5054315;28;20407;-77
2022/08/21 14:39:56;;;;;;;1999.90;999.90;;;;;;;;;;5050288;28;20396;-77
2022/08/21 14:42:24;;;;;;;1999.90;999.90;;;;;;;;;;5049978;28;20420;-76
2022/08/21 14:44:54;;;;;;;1999.90;999.90;;;;;;;;;;5053897;28;20438;-76
2022/08/21 14:47:22;;;;;;;1999.90;999.90;;;;;;;;;;5051117;28;20477;-78
2022/08/21 14:49:53;;;;;;;1999.90;999.90;;;;;;;;;;5048081;28;20947;-78
2022/08/21 14:52:22;;;;;;;1999.90;999.90;;;;;;;;;;5051952;28;20976;-77
2022/08/21 14:54:50;;;;;;;1999.90;999.90;;;;;;;;;;5047095;28;20401;-79
2022/08/21 14:57:19;;;;;;;1999.90;999.90;;;;;;;;;;5049099;28;20410;-77
2022/08/21 14:59:48;;;;;;;1999.90;999.90;;;;;;;;;;5045490;28;20396;-77
2022/08/21 15:02:15;;;;;;;1999.90;999.90;;;;;;;;;;5048323;28;20400;-77
2022/08/21 15:04:43;;;;;;;1999.90;999.90;;;;;;;;;;5049504;28;20426;-77
2022/08/21 15:07:11;;;;;;;1999.90;999.90;;;;;;;;;;5045729;28;20532;-78
2022/08/21 15:09:38;;;;;;;1999.90;999.90;;;;;;;;;;5051797;28;21180;-78
2022/08/21 15:12:07;;;;;;;1999.90;999.90;;;;;;;;;;5052472;28;20756;-77
2022/08/21 15:14:37;;;;;;;1999.90;999.90;;;;;;;;;;5050650;28;20409;-77
2022/08/21 15:17:06;;;;;;;1999.90;999.90;;;;;;;;;;5060245;28;20412;-78
2022/08/21 15:19:34;;;;;;;1999.90;999.90;;;;;;;;;;5052007;28;20419;-77
2022/08/21 15:22:02;;;;;;;1999.90;999.90;;;;;;;;;;5048482;28;20908;-77
2022/08/21 15:24:30;;;;;;;1999.90;999.90;;;;;;;;;;5047947;28;20392;-76
2022/08/21 15:27:00;;;;;;;1999.90;999.90;;;;;;;;;;5049208;28;20427;-76
2022/08/21 15:29:27;;;;;;;1999.90;999.90;;;;;;;;;;5047067;28;20400;-77
2022/08/21 15:32:03;;;;;;;1999.90;999.90;;;;;;;;;;5059317;28;20407;-77
2022/08/21 15:34:31;;;;;;;1999.90;999.90;;;;;;;;;;5046705;28;20397;-77
2022/08/21 15:36:59;;;;;;;1999.90;999.90;;;;;;;;;;5046986;28;20423;-76
2022/08/21 15:39:27;;;;;;;1999.90;999.90;;;;;;;;;;5042848;28;20396;-77
2022/08/21 15:41:58;;;;;;;1999.90;999.90;;;;;;;;;;5047158;28;20420;-77
2022/08/21 15:44:29;;;;;;;1999.90;999.90;;;;;;;;;;5049419;28;20495;-76
2022/08/21 15:46:57;;;;;;;1999.90;999.90;;;;;;;;;;5047112;28;20424;-77
2022/08/21 15:49:27;;;;;;;1999.90;999.90;;;;;;;;;;5046053;28;20396;-76
2022/08/21 15:51:54;;;;;;;1999.90;999.90;;;;;;;;;;5032600;28;21774;-76
2022/08/21 15:54:22;;;;;;;1999.90;999.90;;;;;;;;;;5026863;28;20396;-76
2022/08/21 15:56:51;;;;;;;1999.90;999.90;;;;;;;;;;5046147;28;20427;-77
2022/08/21 15:59:21;;;;;;;1999.90;999.90;;;;;;;;;;5047854;28;20487;-76
2022/08/21 16:01:49;;;;;;;1999.90;999.90;;;;;;;;;;5046256;28;20503;-76
2022/08/21 16:04:20;;;;;;;1999.90;999.90;;;;;;;;;;5030009;28;20861;-77
2022/08/21 16:06:49;;;;;;;1999.90;999.90;;;;;;;;;;5057920;28;20526;-76
2022/08/21 16:09:23;;;;;;;1999.90;999.90;;;;;;;;;;5046652;28;20471;-76
2022/08/21 16:11:51;;;;;;;1999.90;999.90;;;;;;;;;;5045856;28;21720;-76
2022/08/21 16:14:19;;;;;;;1999.90;999.90;;;;;;;;;;5053312;28;20501;-76
2022/08/21 16:16:46;;;;;;;1999.90;999.90;;;;;;;;;;5052266;28;20416;-76
2022/08/21 16:19:14;;;;;;;1999.90;999.90;;;;;;;;;;5036753;28;20399;-75
2022/08/21 16:21:42;;;;;;;1999.90;999.90;;;;;;;;;;5051740;28;20409;-75
2022/08/21 16:24:11;;;;;;;1999.90;999.90;;;;;;;;;;5031713;28;20422;-76
2022/08/21 16:26:39;;;;;;;1999.90;999.90;;;;;;;;;;5061847;28;20400;-76
2022/08/21 16:29:07;;;;;;;1999.90;999.90;;;;;;;;;;5035747;28;20816;-76
2022/08/21 16:31:35;;;;;;;1999.90;999.90;;;;;;;;;;5049784;28;20423;-76
2022/08/21 16:34:03;;;;;;;1999.90;999.90;;;;;;;;;;5051303;28;21178;-76
2022/08/21 16:36:31;;;;;;;1999.90;999.90;;;;;;;;;;5048229;28;20408;-76
2022/08/21 16:39:00;;;;;;;1999.90;999.90;;;;;;;;;;5049926;28;20432;-76
2022/08/21 16:41:31;;;;;;;1999.90;999.90;;;;;;;;;;5049030;28;20605;-76
2022/08/21 16:44:00;;;;;;;1999.90;999.90;;;;;;;;;;5048995;28;20949;-76
2022/08/21 16:46:29;;;;;;;1999.90;999.90;;;;;;;;;;5051493;28;20415;-76
2022/08/21 16:48:57;;;;;;;1999.90;999.90;;;;;;;;;;5049264;28;20400;-76
2022/08/21 16:51:24;;;;;;;1999.90;999.90;;;;;;;;;;5043122;28;20887;-76
2022/08/21 16:53:52;;;;;;;1999.90;999.90;;;;;;;;;;5051839;28;20893;-76
2022/08/21 16:56:20;;;;;;;1999.90;999.90;;;;;;;;;;5054079;28;21185;-76
2022/08/21 16:58:49;;;;;;;1999.90;999.90;;;;;;;;;;5051652;28;20435;-77
2022/08/21 17:01:20;;;;;;;1999.90;999.90;;;;;;;;;;5054870;28;20404;-77
2022/08/21 17:03:50;;;;;;;1999.90;999.90;;;;;;;;;;5035278;28;20917;-76
2022/08/21 17:06:18;;;;;;;1999.90;999.90;;;;;;;;;;5055212;28;20408;-76
2022/08/21 17:08:46;;;;;;;1999.90;999.90;;;;;;;;;;5049079;28;20435;-76
2022/08/21 17:11:21;;;;;;;1999.90;999.90;;;;;;;;;;5055506;28;20394;-76
2022/08/21 17:14:08;;;;;;;1999.90;999.90;;;;;;;;;;5053809;28;20399;-76
2022/08/21 17:16:37;;;;;;;1999.90;999.90;;;;;;;;;;5058464;28;20492;-76
2022/08/21 17:19:05;;;;;;;1999.90;999.90;;;;;;;;;;5053287;28;20424;-76
2022/08/21 17:21:32;;;;;;;1999.90;999.90;;;;;;;;;;5052929;28;20396;-76
2022/08/21 17:24:00;;;;;;;1999.90;999.90;;;;;;;;;;5053114;28;20523;-77
2022/08/21 17:26:28;;;;;;;1999.90;999.90;;;;;;;;;;5056110;28;20468;-77
2022/08/21 17:28:56;;;;;;;1999.90;999.90;;;;;;;;;;5052884;28;20520;-77
2022/08/21 17:31:25;;;;;;;1999.90;999.90;;;;;;;;;;5056539;28;20413;-77
2022/08/21 17:33:54;;;;;;;1999.90;999.90;;;;;;;;;;5052171;28;20424;-76
2022/08/21 17:36:25;;;;;;;1999.90;999.90;;;;;;;;;;5049692;28;20415;-76
2022/08/21 17:38:52;;;;;;;1999.90;999.90;;;;;;;;;;5053574;28;20392;-77
2022/08/21 17:41:21;;;;;;;1999.90;999.90;;;;;;;;;;5061532;28;20407;-77
2022/08/21 17:43:50;;;;;;;1999.90;999.90;;;;;;;;;;5053754;28;20429;-76
2022/08/21 17:46:19;;;;;;;1999.90;999.90;;;;;;;;;;5051636;28;20548;-77
2022/08/21 17:48:48;;;;;;;1999.90;999.90;;;;;;;;;;5049117;28;20471;-77
2022/08/21 17:51:16;;;;;;;1999.90;999.90;;;;;;;;;;5056487;28;20391;-77
2022/08/21 17:53:44;;;;;;;1999.90;999.90;;;;;;;;;;5049883;28;20758;-77
2022/08/21 17:56:13;;;;;;;1999.90;999.90;;;;;;;;;;5036739;28;20924;-77
2022/08/21 17:58:42;;;;;;;1999.90;999.90;;;;;;;;;;5053676;28;20394;-77
2022/08/21 18:01:10;;;;;;;1999.90;999.90;;;;;;;;;;5052201;28;20529;-76
2022/08/21 18:03:38;;;;;;;1999.90;999.90;;;;;;;;;;5054077;28;20402;-77
2022/08/21 18:06:08;;;;;;;1999.90;999.90;;;;;;;;;;5066472;28;20430;-76
2022/08/21 18:08:35;;;;;;;1999.90;999.90;;;;;;;;;;5069955;28;20371;-77
2022/08/21 18:11:03;;;;;;;1999.90;999.90;;;;;;;;;;5052298;28;20510;-76
2022/08/21 18:13:33;;;;;;;1999.90;999.90;;;;;;;;;;5054546;28;20389;-76
2022/08/21 18:16:02;;;;;;;1999.90;999.90;;;;;;;;;;5064067;28;20491;-77
2022/08/21 18:18:33;;;;;;;1999.90;999.90;;;;;;;;;;5048036;28;20388;-77
2022/08/21 18:21:01;;;;;;;1999.90;999.90;;;;;;;;;;5051120;28;20484;-77
2022/08/21 18:23:30;;;;;;;1999.90;999.90;;;;;;;;;;5046661;28;20400;-76
2022/08/21 18:26:12;;;;;;;1999.90;999.90;;;;;;;;;;5048174;28;20411;-77
2022/08/21 18:28:40;;;;;;;1999.90;999.90;;;;;;;;;;5046635;28;20398;-77
2022/08/21 18:31:09;;;;;;;1999.90;999.90;;;;;;;;;;5047055;28;20416;-77
2022/08/21 18:33:37;;;;;;;1999.90;999.90;;;;;;;;;;5064241;28;20807;-76
2022/08/21 18:36:05;;;;;;;1999.90;999.90;;;;;;;;;;5045037;28;20906;-77
2022/08/21 18:38:35;;;;;;;1999.90;999.90;;;;;;;;;;5061601;28;20388;-77
2022/08/21 18:41:03;;;;;;;1999.90;999.90;;;;;;;;;;5045853;28;20932;-76
2022/08/21 18:43:37;;;;;;;1999.90;999.90;;;;;;;;;;5061531;28;20498;-77
2022/08/21 18:46:05;;;;;;;1999.90;999.90;;;;;;;;;;5052353;28;20495;-76
2022/08/21 18:48:33;;;;;;;1999.90;999.90;;;;;;;;;;5046912;28;20387;-77
2022/08/21 18:51:01;;;;;;;1999.90;999.90;;;;;;;;;;5044392;28;20981;-74
2022/08/21 18:53:29;;;;;;;1999.90;999.90;;;;;;;;;;5043960;28;20389;-73
2022/08/21 18:55:58;;;;;;;1999.90;999.90;;;;;;;;;;5045953;28;20411;-72
2022/08/21 18:58:46;;;;;;;1999.90;999.90;;;;;;;;;;5045305;28;20389;-73
2022/08/21 19:01:14;;;;;;;1999.90;999.90;;;;;;;;;;5050863;28;20484;-73
2022/08/21 19:03:44;;;;;;;1999.90;999.90;;;;;;;;;;5049526;28;20885;-72
2022/08/21 19:06:16;;;;;;;1999.90;999.90;;;;;;;;;;5045789;28;20457;-73
2022/08/21 19:08:44;;;;;;;1999.90;999.90;;;;;;;;;;5041154;28;20412;-74
2022/08/21 19:11:14;;;;;;;1999.90;999.90;;;;;;;;;;5047099;28;20419;-75
2022/08/21 19:13:51;;;;;;;1999.90;999.90;;;;;;;;;;5048815;28;21989;-75
2022/08/21 19:16:19;;;;;;;1999.90;999.90;;;;;;;;;;5051193;28;20408;-75
2022/08/21 19:18:47;;;;;;;1999.90;999.90;;;;;;;;;;5045555;28;20399;-75
2022/08/21 19:21:16;;;;;;;1999.90;999.90;;;;;;;;;;5048977;28;20801;-75
2022/08/21 19:23:47;;;;;;;1999.90;999.90;;;;;;;;;;5053445;28;20403;-76
2022/08/21 19:26:21;;;;;;;1999.90;999.90;;;;;;;;;;5048189;28;20408;-76
2022/08/21 19:28:51;;;;;;;1999.90;999.90;;;;;;;;;;5046321;28;20388;-75
2022/08/21 19:31:21;;;;;;;1999.90;999.90;;;;;;;;;;5047647;28;20400;-75
2022/08/21 19:33:52;;;;;;;1999.90;999.90;;;;;;;;;;5045531;28;21515;-76
2022/08/21 19:36:28;;;;;;;1999.90;999.90;;;;;;;;;;5040138;28;20455;-75
2022/08/21 19:38:56;;;;;;;1999.90;999.90;;;;;;;;;;5040687;28;20391;-76
2022/08/21 19:41:27;;;;;;;1999.90;999.90;;;;;;;;;;5043592;28;20412;-76
2022/08/21 19:43:56;;;;;;;1999.90;999.90;;;;;;;;;;5047701;28;20388;-76
2022/08/21 19:46:26;;;;;;;1999.90;999.90;;;;;;;;;;5045149;28;20396;-76
2022/08/21 19:48:54;;;;;;;1999.90;999.90;;;;;;;;;;5047859;28;21212;-76
2022/08/21 19:51:23;;;;;;;1999.90;999.90;;;;;;;;;;5042458;28;20412;-76
2022/08/21 19:53:51;;;;;;;1999.90;999.90;;;;;;;;;;5051466;28;20404;-76
2022/08/21 19:56:25;;;;;;;1999.90;999.90;;;;;;;;;;5048851;28;20415;-76
2022/08/21 19:58:54;;;;;;;1999.90;999.90;;;;;;;;;;5043927;28;20990;-75
2022/08/21 20:01:24;;;;;;;1999.90;999.90;;;;;;;;;;5044814;28;20410;-75
2022/08/21 20:03:52;;;;;;;1999.90;999.90;;;;;;;;;;5048465;28;20417;-76
2022/08/21 20:06:22;;;;;;;1999.90;999.90;;;;;;;;;;5049632;28;20418;-75
2022/08/21 20:09:10;;;;;;;1999.90;999.90;;;;;;;;;;5046585;28;20391;-75
2022/08/21 20:11:39;;;;;;;1999.90;999.90;;;;;;;;;;5051257;28;20793;-75
2022/08/21 20:14:09;;;;;;;1999.90;999.90;;;;;;;;;;5045649;28;20397;-75
2022/08/21 20:16:37;;;;;;;1999.90;999.90;;;;;;;;;;5061190;28;20412;-76
2022/08/21 20:19:08;;;;;;;1999.90;999.90;;;;;;;;;;5048935;28;20472;-76
2022/08/21 20:21:36;;;;;;;1999.90;999.90;;;;;;;;;;5049594;28;20400;-76
2022/08/21 20:24:12;;;;;;;1999.90;999.90;;;;;;;;;;5064156;28;20408;-76
2022/08/21 20:26:42;;;;;;;1999.90;999.90;;;;;;;;;;5052049;28;20544;-75
2022/08/21 20:29:18;;;;;;;1999.90;999.90;;;;;;;;;;5045329;28;20402;-79
2022/08/21 20:31:51;;;;;;;1999.90;999.90;;;;;;;;;;5050226;28;20413;-75
2022/08/21 20:34:19;;;;;;;1999.90;999.90;;;;;;;;;;5044985;28;20478;-77
2022/08/21 20:36:47;;;;;;;1999.90;999.90;;;;;;;;;;5044358;28;20499;-77
2022/08/21 20:39:21;;;;;;;1999.90;999.90;;;;;;;;;;5059596;28;20392;-77
2022/08/21 20:41:51;;;;;;;1999.90;999.90;;;;;;;;;;5056816;28;20398;-78
2022/08/21 20:44:20;;;;;;;1999.90;999.90;;;;;;;;;;5046555;28;20522;-75
2022/08/21 20:46:48;;;;;;;1999.90;999.90;;;;;;;;;;5048481;28;20520;-76
2022/08/21 20:49:19;;;;;;;1999.90;999.90;;;;;;;;;;5046952;28;20882;-76
2022/08/21 20:51:49;;;;;;;1999.90;999.90;;;;;;;;;;5047503;28;20822;-76
2022/08/21 20:54:20;;;;;;;1999.90;999.90;;;;;;;;;;5044491;28;20455;-77
2022/08/21 20:56:50;;;;;;;1999.90;999.90;;;;;;;;;;5054027;28;20416;-76
2022/08/21 20:59:30;;;;;;;1999.90;999.90;;;;;;;;;;5050307;28;20439;-76
2022/08/21 21:02:01;;;;;;;1999.90;999.90;;;;;;;;;;5053252;28;20416;-75
2022/08/21 21:04:34;;;;;;;1999.90;999.90;;;;;;;;;;5047074;28;20403;-74
2022/08/21 21:07:05;;;;;;;1999.90;999.90;;;;;;;;;;5050225;28;20554;-74
2022/08/21 21:09:38;;;;;;;1999.90;999.90;;;;;;;;;;5050091;28;20492;-74
2022/08/21 21:12:10;;;;;;;1999.90;999.90;;;;;;;;;;5052826;28;20407;-75
2022/08/21 21:14:43;;;;;;;1999.90;999.90;;;;;;;;;;5048345;28;20399;-74
2022/08/21 21:17:15;;;;;;;1999.90;999.90;;;;;;;;;;5063485;28;20404;-75
2022/08/21 21:19:48;;;;;;;1999.90;999.90;;;;;;;;;;5056207;28;20396;-75
2022/08/21 21:22:17;;;;;;;1999.90;999.90;;;;;;;;;;5049493;28;20451;-74
2022/08/21 21:24:50;;;;;;;1999.90;999.90;;;;;;;;;;5047400;28;20826;-74
2022/08/21 21:27:22;;;;;;;1999.90;999.90;;;;;;;;;;5066080;28;20917;-75
2022/08/21 21:29:56;;;;;;;1999.90;999.90;;;;;;;;;;5030194;28;20412;-75
2022/08/21 21:32:27;;;;;;;1999.90;999.90;;;;;;;;;;5048535;28;20430;-75
2022/08/21 21:34:55;;;;;;;1999.90;999.90;;;;;;;;;;5046782;28;20404;-74
2022/08/21 21:37:25;;;;;;;1999.90;999.90;;;;;;;;;;5048193;28;20411;-74
2022/08/21 21:39:56;;;;;;;1999.90;999.90;;;;;;;;;;5047546;28;21185;-74
2022/08/21 21:42:28;;;;;;;1999.90;999.90;;;;;;;;;;5051775;28;21128;-73
2022/08/21 21:45:12;;;;;;;1999.90;999.90;;;;;;;;;;5047431;28;20389;-74
2022/08/21 21:47:50;;;;;;;1999.90;999.90;;;;;;;;;;5049397;28;20402;-74
2022/08/21 21:50:21;;;;;;;1999.90;999.90;;;;;;;;;;5049105;28;20474;-73
2022/08/21 21:52:59;;;;;;;1999.90;999.90;;;;;;;;;;5051275;28;20404;-73
2022/08/21 21:55:33;;;;;;;1999.90;999.90;;;;;;;;;;5064481;28;21565;-74